createdAt,value
2023-05-05T00:00:59.743Z,99.90
2023-05-05T00:03:27.257Z,99.90
2023-05-05T00:05:54.801Z,99.90
2023-05-05T00:08:22.494Z,99.70
2023-05-05T00:10:50.712Z,99.60
2023-05-05T00:13:18.572Z,99.60
2023-05-05T00:15:47.389Z,99.40
2023-05-05T00:18:16.791Z,99.50
2023-05-05T00:20:47.407Z,99.40
2023-05-05T00:23:19.780Z,99.50
2023-05-05T00:25:46.939Z,99.50
2023-05-05T00:28:16.527Z,99.70
2023-05-05T00:30:43.441Z,99.60
2023-05-05T00:33:10.310Z,99.50
2023-05-05T00:35:37.128Z,99.30
2023-05-05T00:38:05.115Z,99.40
2023-05-05T00:40:31.938Z,99.50
2023-05-05T00:42:59.721Z,99.50
2023-05-05T00:45:26.731Z,99.50
2023-05-05T00:47:58.932Z,99.50
2023-05-05T00:50:29.123Z,99.60
2023-05-05T00:53:06.808Z,99.90
2023-05-05T00:55:34.817Z,99.90
2023-05-05T00:58:03.226Z,99.90
2023-05-05T01:00:30.633Z,99.90
2023-05-05T01:02:58.216Z,99.90
2023-05-05T01:05:27.119Z,99.90
2023-05-05T01:08:18.024Z,99.90
2023-05-05T01:10:52.957Z,99.90
2023-05-05T01:13:37.344Z,99.90
2023-05-05T01:16:09.891Z,99.90
2023-05-05T01:18:49.492Z,99.90
2023-05-05T01:21:27.460Z,99.90
2023-05-05T01:24:11.013Z,99.90
2023-05-05T01:27:00.332Z,99.90
2023-05-05T01:29:48.088Z,99.90
2023-05-05T01:32:17.756Z,99.90
2023-05-05T01:34:53.508Z,99.90
2023-05-05T01:37:27.875Z,99.90
2023-05-05T01:39:59.552Z,99.90
2023-05-05T01:42:29.190Z,99.90
2023-05-05T01:44:56.893Z,99.90
2023-05-05T01:47:24.792Z,99.90
2023-05-05T01:49:52.799Z,99.90
2023-05-05T01:52:20.540Z,99.90
2023-05-05T01:54:50.714Z,99.90
2023-05-05T01:57:18.512Z,99.90
2023-05-05T01:59:45.309Z,99.90
2023-05-05T02:02:14.473Z,99.90
2023-05-05T02:04:44.945Z,99.90
2023-05-05T02:07:12.740Z,99.90
2023-05-05T02:09:40.760Z,99.90
2023-05-05T02:12:08.383Z,99.90
2023-05-05T02:14:36.965Z,99.90
2023-05-05T02:17:04.189Z,99.90
2023-05-05T02:19:36.351Z,99.90
2023-05-05T02:22:03.326Z,99.90
2023-05-05T02:24:30.906Z,99.90
2023-05-05T02:26:59.671Z,99.90
2023-05-05T02:29:32.669Z,99.90
2023-05-05T02:32:05.065Z,99.90
2023-05-05T02:34:36.851Z,99.90
2023-05-05T02:37:09.856Z,99.90
2023-05-05T02:39:43.792Z,99.90
2023-05-05T02:42:18.417Z,99.90
2023-05-05T02:44:46.289Z,99.90
2023-05-05T02:47:13.953Z,99.90
2023-05-05T02:49:40.952Z,99.90
2023-05-05T02:52:08.435Z,99.90
2023-05-05T02:54:37.780Z,99.90
2023-05-05T02:57:16.412Z,99.90
2023-05-05T02:59:56.633Z,99.90
2023-05-05T03:02:35.941Z,99.90
2023-05-05T03:05:11.010Z,99.90
2023-05-05T03:07:54.126Z,99.90
2023-05-05T03:10:27.603Z,99.90
2023-05-05T03:12:58.385Z,99.90
2023-05-05T03:15:36.015Z,99.90
2023-05-05T03:18:04.021Z,99.90
2023-05-05T03:20:31.216Z,99.90
2023-05-05T03:23:03.233Z,99.90
2023-05-05T03:25:47.504Z,99.90
2023-05-05T03:28:27.273Z,99.90
2023-05-05T03:30:55.066Z,99.90
2023-05-05T03:33:22.360Z,99.90
2023-05-05T03:35:49.260Z,99.90
2023-05-05T03:38:16.674Z,99.90
2023-05-05T03:40:44.815Z,99.90
2023-05-05T03:43:14.660Z,99.90
2023-05-05T03:45:41.557Z,99.90
2023-05-05T03:48:09.999Z,99.90
2023-05-05T03:50:38.651Z,99.90
2023-05-05T03:53:05.522Z,99.90
2023-05-05T03:55:32.766Z,99.90
2023-05-05T03:57:59.713Z,99.90
2023-05-05T04:00:27.545Z,99.90
2023-05-05T04:02:54.768Z,99.90
2023-05-05T04:05:23.001Z,99.90
2023-05-05T04:07:50.040Z,99.90
2023-05-05T04:10:17.064Z,99.90
2023-05-05T04:12:44.039Z,99.90
2023-05-05T04:15:11.039Z,99.90
2023-05-05T04:17:38.016Z,99.90
2023-05-05T04:20:06.298Z,99.90
2023-05-05T04:22:33.669Z,99.90
2023-05-05T04:25:01.275Z,99.90
2023-05-05T04:27:29.960Z,99.90
2023-05-05T04:29:58.262Z,99.90
2023-05-05T04:32:25.390Z,99.90
2023-05-05T04:34:52.484Z,99.90
2023-05-05T04:37:19.622Z,99.90
2023-05-05T04:39:46.573Z,99.90
2023-05-05T04:42:14.013Z,99.90
2023-05-05T04:44:41.522Z,99.90
2023-05-05T04:47:08.505Z,99.90
2023-05-05T04:49:35.747Z,99.90
2023-05-05T04:52:02.645Z,99.90
2023-05-05T04:54:29.484Z,99.90
2023-05-05T04:56:56.287Z,99.90
2023-05-05T04:59:23.110Z,99.90
2023-05-05T05:01:49.972Z,99.90
2023-05-05T05:04:18.649Z,99.90
2023-05-05T05:06:46.119Z,99.90
2023-05-05T05:09:13.284Z,99.90
2023-05-05T05:11:40.305Z,99.90
2023-05-05T05:14:07.296Z,99.90
2023-05-05T05:16:34.215Z,99.90
2023-05-05T05:19:01.766Z,99.90
2023-05-05T05:21:29.895Z,99.90
2023-05-05T05:23:56.780Z,99.90
2023-05-05T05:26:24.452Z,99.90
2023-05-05T05:28:51.680Z,99.90
2023-05-05T05:31:18.663Z,99.90
2023-05-05T05:33:46.216Z,99.90
2023-05-05T05:36:14.742Z,99.90
2023-05-05T05:38:41.981Z,99.90
2023-05-05T05:41:09.303Z,99.90
2023-05-05T05:43:37.682Z,99.90
2023-05-05T05:46:07.533Z,99.90
2023-05-05T05:48:36.252Z,99.90
2023-05-05T05:51:03.724Z,99.90
2023-05-05T05:53:30.870Z,99.90
2023-05-05T05:55:57.814Z,99.90
2023-05-05T05:58:24.764Z,99.90
2023-05-05T06:00:51.954Z,99.90
2023-05-05T06:03:19.070Z,99.90
2023-05-05T06:05:48.795Z,99.90
2023-05-05T06:08:15.987Z,99.90
2023-05-05T06:10:48.269Z,99.90
2023-05-05T06:13:18.348Z,99.90
2023-05-05T06:15:48.789Z,99.90
2023-05-05T06:18:16.643Z,99.90
2023-05-05T06:20:43.598Z,99.60
2023-05-05T06:23:12.101Z,99.60
2023-05-05T06:25:43.648Z,97.50
2023-05-05T06:28:10.525Z,96.30
2023-05-05T06:30:37.393Z,96.20
2023-05-05T06:33:04.230Z,95.80
2023-05-05T06:35:31.121Z,96.60
2023-05-05T06:37:57.997Z,95.60
2023-05-05T06:40:24.796Z,94.70
2023-05-05T06:42:51.767Z,94.60
2023-05-05T06:45:23.488Z,93.80
2023-05-05T06:47:50.405Z,93.90
2023-05-05T06:50:17.224Z,93.90
2023-05-05T06:52:44.109Z,93.90
2023-05-05T06:55:11.036Z,92.90
2023-05-05T06:57:37.863Z,92.10
2023-05-05T07:00:06.472Z,92.90
2023-05-05T07:02:33.887Z,92.90
2023-05-05T07:05:00.764Z,92.10
2023-05-05T07:07:27.697Z,92.30
2023-05-05T07:09:54.568Z,92.10
2023-05-05T07:12:21.910Z,91.70
2023-05-05T07:14:48.814Z,92.30
2023-05-05T07:17:16.080Z,91.40
2023-05-05T07:19:43.180Z,91.00
2023-05-05T07:22:10.015Z,91.00
2023-05-05T07:24:36.836Z,91.10
2023-05-05T07:27:03.747Z,91.30
2023-05-05T07:29:30.913Z,90.50
2023-05-05T07:31:57.725Z,90.20
2023-05-05T07:34:24.637Z,90.70
2023-05-05T07:36:51.492Z,90.50
2023-05-05T07:39:19.480Z,91.00
2023-05-05T07:41:46.417Z,90.40
2023-05-05T07:44:13.201Z,93.80
2023-05-05T07:46:40.035Z,93.90
2023-05-05T07:49:06.872Z,91.40
2023-05-05T07:51:34.584Z,93.60
2023-05-05T07:54:01.872Z,90.10
2023-05-05T07:56:28.753Z,88.70
2023-05-05T07:58:56.024Z,88.90
2023-05-05T08:01:23.032Z,89.20
2023-05-05T08:03:49.952Z,90.10
2023-05-05T08:06:17.970Z,89.20
2023-05-05T08:08:44.822Z,92.30
2023-05-05T08:11:11.632Z,92.90
2023-05-05T08:13:39.218Z,90.20
2023-05-05T08:16:06.541Z,93.60
2023-05-05T08:18:34.501Z,94.80
2023-05-05T08:21:01.323Z,95.50
2023-05-05T08:23:28.122Z,94.70
2023-05-05T08:25:55.073Z,95.60
2023-05-05T08:28:23.033Z,96.10
2023-05-05T08:30:50.792Z,96.20
2023-05-05T08:33:17.934Z,96.90
2023-05-05T08:35:45.496Z,97.10
2023-05-05T08:38:12.609Z,97.10
2023-05-05T08:40:40.660Z,97.20
2023-05-05T08:43:07.718Z,97.30
2023-05-05T08:45:34.596Z,97.60
2023-05-05T08:48:04.137Z,98.20
2023-05-05T08:50:32.096Z,98.90
2023-05-05T08:53:04.673Z,99.00
2023-05-05T08:55:35.440Z,98.50
2023-05-05T08:58:05.801Z,99.00
2023-05-05T09:00:34.361Z,99.30
2023-05-05T09:03:02.077Z,99.90
2023-05-05T09:05:29.043Z,99.90
2023-05-05T09:07:56.022Z,99.90
2023-05-05T09:10:23.058Z,99.90
2023-05-05T09:12:51.505Z,99.90
2023-05-05T09:18:03.734Z,99.90
2023-05-05T09:20:35.346Z,99.90
2023-05-05T09:23:19.647Z,99.90
2023-05-05T09:26:08.051Z,99.90
2023-05-05T09:28:34.942Z,99.70
2023-05-05T09:31:16.008Z,99.90
2023-05-05T09:33:43.674Z,99.90
2023-05-05T09:36:11.607Z,99.90
2023-05-05T09:38:38.487Z,99.90
2023-05-05T09:41:06.560Z,99.90
2023-05-05T09:43:51.894Z,99.90
2023-05-05T09:46:19.039Z,99.90
2023-05-05T09:48:45.948Z,99.90
2023-05-05T09:51:12.750Z,99.90
2023-05-05T09:53:41.548Z,99.90
2023-05-05T09:56:08.888Z,99.90
2023-05-05T09:58:36.053Z,99.90
2023-05-05T10:01:02.923Z,99.90
2023-05-05T10:03:29.762Z,99.90
2023-05-05T10:05:59.025Z,99.90
2023-05-05T10:08:30.886Z,99.90
2023-05-05T10:11:05.022Z,99.90
2023-05-05T10:13:37.108Z,99.90
2023-05-05T10:16:04.998Z,99.90
2023-05-05T10:18:32.455Z,99.90
2023-05-05T10:21:04.314Z,99.90
2023-05-05T10:23:55.303Z,99.90
2023-05-05T10:26:23.222Z,99.70
2023-05-05T10:28:56.759Z,99.80
2023-05-05T10:31:33.592Z,99.90
2023-05-05T10:34:04.192Z,99.60
2023-05-05T10:36:31.890Z,99.90
2023-05-05T10:39:00.613Z,99.90
2023-05-05T10:41:28.593Z,99.90
2023-05-05T10:44:00.436Z,99.90
2023-05-05T10:46:29.105Z,99.90
2023-05-05T10:49:33.932Z,99.90
2023-05-05T10:52:08.914Z,99.90
2023-05-05T10:54:46.542Z,99.90
2023-05-05T10:57:16.642Z,99.90
2023-05-05T10:59:43.598Z,99.90
2023-05-05T11:02:21.121Z,99.90
2023-05-05T11:05:23.671Z,99.90
2023-05-05T11:07:51.771Z,99.90
2023-05-05T11:10:20.670Z,99.90
2023-05-05T11:13:00.108Z,99.90
2023-05-05T11:15:30.241Z,99.90
2023-05-05T11:17:58.830Z,99.90
2023-05-05T11:20:40.646Z,99.70
2023-05-05T11:23:07.683Z,99.90
2023-05-05T11:25:40.518Z,99.50
2023-05-05T11:28:16.377Z,99.30
2023-05-05T11:30:55.782Z,99.40
2023-05-05T11:33:33.390Z,99.70
2023-05-05T11:36:01.842Z,99.30
2023-05-05T11:38:36.496Z,99.20
2023-05-05T11:41:27.189Z,99.80
2023-05-05T11:44:10.470Z,99.90
2023-05-05T11:46:37.875Z,99.90
2023-05-05T11:49:04.740Z,99.90
2023-05-05T11:51:32.105Z,99.70
2023-05-05T11:53:59.327Z,99.90
2023-05-05T11:56:26.349Z,99.90
2023-05-05T11:59:10.363Z,99.90
2023-05-05T12:01:43.297Z,99.90
2023-05-05T12:04:16.592Z,99.90
2023-05-05T12:06:44.490Z,99.90
2023-05-05T12:09:20.644Z,99.10
2023-05-05T12:11:55.185Z,99.90
2023-05-05T12:14:23.849Z,99.90
2023-05-05T12:17:03.585Z,99.90
2023-05-05T12:19:33.321Z,99.90
2023-05-05T12:22:04.561Z,99.90
2023-05-05T12:24:31.636Z,99.80
2023-05-05T12:27:11.196Z,99.60
2023-05-05T12:29:38.389Z,99.90
2023-05-05T12:32:05.593Z,99.90
2023-05-05T12:34:32.869Z,99.90
2023-05-05T12:37:01.131Z,99.90
2023-05-05T12:39:37.304Z,99.30
2023-05-05T12:42:05.012Z,99.70
2023-05-05T12:44:38.889Z,99.70
2023-05-05T12:47:06.202Z,99.90
2023-05-05T12:49:45.272Z,99.90
2023-05-05T12:52:12.142Z,98.50
2023-05-05T12:54:59.225Z,99.70
2023-05-05T12:57:26.620Z,99.90
2023-05-05T12:59:53.714Z,99.90
2023-05-05T13:02:21.156Z,99.40
2023-05-05T13:04:57.282Z,98.90
2023-05-05T13:07:24.118Z,99.00
2023-05-05T13:09:51.519Z,98.60
2023-05-05T13:12:19.101Z,99.70
2023-05-05T13:14:46.778Z,99.40
2023-05-05T13:17:14.617Z,99.90
2023-05-05T13:19:46.543Z,99.90
2023-05-05T13:22:14.122Z,99.30
2023-05-05T13:24:51.731Z,99.70
2023-05-05T13:27:19.489Z,99.90
2023-05-05T13:29:46.714Z,99.70
2023-05-05T13:32:13.613Z,99.80
2023-05-05T13:34:40.529Z,99.90
2023-05-05T13:37:07.373Z,99.90
2023-05-05T13:39:34.163Z,99.70
2023-05-05T13:42:01.037Z,99.80
2023-05-05T13:44:27.831Z,99.90
2023-05-05T13:46:54.817Z,99.90
2023-05-05T13:49:21.683Z,99.90
2023-05-05T13:51:48.592Z,99.90
2023-05-05T13:54:15.437Z,99.90
2023-05-05T13:56:42.329Z,99.90
2023-05-05T13:59:09.205Z,98.60
2023-05-05T14:01:36.091Z,98.10
2023-05-05T14:04:05.368Z,98.80
2023-05-05T14:06:33.685Z,98.10
2023-05-05T14:09:00.653Z,94.70
2023-05-05T14:11:27.557Z,93.70
2023-05-05T14:13:54.358Z,94.10
2023-05-05T14:16:21.314Z,94.10
2023-05-05T14:18:48.249Z,95.30
2023-05-05T14:21:15.211Z,95.70
2023-05-05T14:23:42.037Z,95.90
2023-05-05T14:26:09.037Z,96.40
2023-05-05T14:28:36.181Z,95.70
2023-05-05T14:31:03.081Z,94.90
2023-05-05T14:33:29.903Z,93.50
2023-05-05T14:35:56.917Z,92.60
2023-05-05T14:38:23.847Z,92.90
2023-05-05T14:40:50.776Z,92.80
2023-05-05T14:43:17.640Z,93.60
2023-05-05T14:45:44.491Z,92.60
2023-05-05T14:48:11.524Z,92.50
2023-05-05T14:50:39.948Z,91.50
2023-05-05T14:53:06.817Z,91.50
2023-05-05T14:55:33.763Z,92.10
2023-05-05T14:58:00.793Z,92.10
2023-05-05T15:00:27.905Z,92.40
2023-05-05T15:02:54.870Z,92.40
2023-05-05T15:05:21.759Z,92.90
2023-05-05T15:07:48.588Z,91.60
2023-05-05T15:10:15.764Z,91.20
2023-05-05T15:12:43.093Z,90.60
2023-05-05T15:15:10.726Z,90.00
2023-05-05T15:17:38.902Z,88.90
2023-05-05T15:20:06.802Z,87.90
2023-05-05T15:22:33.913Z,89.00
2023-05-05T15:25:01.352Z,88.70
2023-05-05T15:27:28.337Z,89.40
2023-05-05T15:29:55.377Z,87.90
2023-05-05T15:32:22.342Z,87.40
2023-05-05T15:34:50.516Z,86.40
2023-05-05T15:37:17.485Z,86.50
2023-05-05T15:39:44.354Z,86.90
2023-05-05T15:42:11.248Z,84.90
2023-05-05T15:44:38.088Z,85.50
2023-05-05T15:47:05.443Z,84.50
2023-05-05T15:49:32.336Z,85.80
2023-05-05T15:51:59.156Z,85.00
2023-05-05T15:54:26.020Z,85.90
2023-05-05T15:56:52.920Z,84.70
2023-05-05T15:59:19.750Z,82.90
2023-05-05T16:01:47.464Z,82.30
2023-05-05T16:04:14.465Z,83.60
2023-05-05T16:06:41.435Z,82.10
2023-05-05T16:09:08.323Z,81.60
2023-05-05T16:11:37.091Z,81.90
2023-05-05T16:14:04.260Z,82.10
2023-05-05T16:16:31.220Z,81.10
2023-05-05T16:18:58.128Z,81.40
2023-05-05T16:21:25.611Z,80.80
2023-05-05T16:23:52.569Z,79.80
2023-05-05T16:26:19.743Z,79.80
2023-05-05T16:28:46.567Z,78.90
2023-05-05T16:31:13.641Z,78.00
2023-05-05T16:33:43.834Z,78.50
2023-05-05T16:36:12.117Z,78.20
2023-05-05T16:38:39.977Z,76.40
2023-05-05T16:41:07.242Z,75.60
2023-05-05T16:43:34.843Z,74.20
2023-05-05T16:46:01.889Z,74.40
2023-05-05T16:48:28.776Z,73.20
2023-05-05T16:50:58.797Z,72.80
2023-05-05T16:53:25.988Z,71.40
2023-05-05T16:55:53.828Z,72.70
2023-05-05T16:58:22.480Z,70.80
2023-05-05T17:00:50.510Z,71.00
2023-05-05T17:03:20.785Z,69.80
2023-05-05T17:05:50.163Z,69.70
2023-05-05T17:08:17.456Z,69.90
2023-05-05T17:10:45.468Z,68.70
2023-05-05T17:13:13.304Z,69.60
2023-05-05T17:15:40.974Z,67.60
2023-05-05T17:18:08.475Z,68.50
2023-05-05T17:20:36.323Z,68.20
2023-05-05T17:23:03.319Z,68.60
2023-05-05T17:25:30.191Z,66.90
2023-05-05T17:27:57.497Z,67.30
2023-05-05T17:30:24.477Z,67.40
2023-05-05T17:32:51.302Z,66.70
2023-05-05T17:35:18.565Z,67.90
2023-05-05T17:37:45.734Z,67.20
2023-05-05T17:40:12.711Z,68.30
2023-05-05T17:42:39.736Z,69.40
2023-05-05T17:45:07.897Z,69.50
2023-05-05T17:47:35.389Z,70.40
2023-05-05T17:50:02.908Z,70.90
2023-05-05T17:52:29.780Z,71.30
2023-05-05T17:54:56.916Z,73.00
2023-05-05T17:57:23.907Z,73.40
2023-05-05T17:59:51.957Z,74.70
2023-05-05T18:02:19.329Z,75.10
2023-05-05T18:04:46.536Z,75.30
2023-05-05T18:07:14.681Z,76.20
2023-05-05T18:09:42.202Z,76.50
2023-05-05T18:12:09.278Z,76.30
2023-05-05T18:14:36.249Z,76.80
2023-05-05T18:17:03.168Z,76.80
2023-05-05T18:19:30.279Z,76.80
2023-05-05T18:21:59.846Z,77.50
2023-05-05T18:24:27.549Z,78.50
2023-05-05T18:26:54.457Z,78.00
2023-05-05T18:29:22.181Z,79.80
2023-05-05T18:31:51.905Z,81.10
2023-05-05T18:34:20.530Z,81.50
2023-05-05T18:36:50.135Z,82.50
2023-05-05T18:39:17.785Z,83.00
2023-05-05T18:41:44.594Z,83.30
2023-05-05T18:44:11.573Z,84.20
2023-05-05T18:46:38.558Z,83.80
2023-05-05T18:49:05.514Z,84.20
2023-05-05T18:51:32.323Z,84.30
2023-05-05T18:54:00.848Z,84.30
2023-05-05T18:56:27.788Z,84.90
2023-05-05T18:58:54.631Z,85.50
2023-05-05T19:01:21.672Z,86.00
2023-05-05T19:03:48.673Z,86.50
2023-05-05T19:06:16.324Z,86.90
2023-05-05T19:08:45.117Z,87.00
2023-05-05T19:11:12.536Z,87.20
2023-05-05T19:13:39.885Z,87.70
2023-05-05T19:16:07.351Z,88.60
2023-05-05T19:18:34.396Z,87.90
2023-05-05T19:21:01.474Z,88.40
2023-05-05T19:23:28.284Z,88.10
2023-05-05T19:25:55.116Z,88.80
2023-05-05T19:28:21.930Z,89.70
2023-05-05T19:30:48.841Z,89.90
2023-05-05T19:33:16.283Z,90.60
2023-05-05T19:35:43.952Z,90.70
2023-05-05T19:38:10.906Z,90.70
2023-05-05T19:40:39.277Z,90.90
2023-05-05T19:43:06.159Z,91.10
2023-05-05T19:45:33.892Z,91.30
2023-05-05T19:48:01.814Z,91.60
2023-05-05T19:50:30.366Z,91.80
2023-05-05T19:52:57.800Z,92.30
2023-05-05T19:55:24.856Z,92.50
2023-05-05T19:57:51.786Z,92.60
2023-05-05T20:00:19.705Z,92.70
2023-05-05T20:02:48.656Z,93.20
2023-05-05T20:05:17.267Z,92.90
2023-05-05T20:07:46.273Z,93.10
2023-05-05T20:10:13.445Z,93.30
2023-05-05T20:12:42.525Z,93.60
2023-05-05T20:15:10.980Z,93.60
2023-05-05T20:17:37.841Z,93.80
2023-05-05T20:20:05.178Z,94.10
2023-05-05T20:22:32.021Z,94.50
2023-05-05T20:24:58.873Z,94.70
2023-05-05T20:27:26.778Z,94.80
2023-05-05T20:29:55.419Z,95.20
2023-05-05T20:32:22.231Z,95.50
2023-05-05T20:34:49.076Z,95.50
2023-05-05T20:37:15.906Z,95.60
2023-05-05T20:39:43.735Z,96.00
2023-05-05T20:42:10.984Z,96.00
2023-05-05T20:44:38.370Z,96.10
2023-05-05T20:47:05.665Z,96.10
2023-05-05T20:49:32.811Z,96.40
2023-05-05T20:51:59.595Z,96.70
2023-05-05T20:54:31.807Z,96.80
2023-05-05T20:56:58.737Z,97.10
2023-05-05T20:59:27.976Z,97.60
2023-05-05T21:01:57.879Z,97.60
2023-05-05T21:04:24.925Z,97.70
2023-05-05T21:06:51.800Z,98.00
2023-05-05T21:09:19.699Z,98.20
2023-05-05T21:11:46.680Z,98.80
2023-05-05T21:14:13.492Z,98.80
2023-05-05T21:16:40.493Z,99.10
2023-05-05T21:19:07.500Z,99.20
2023-05-05T21:21:34.354Z,99.40
2023-05-05T21:24:01.267Z,99.70
2023-05-05T21:26:28.723Z,99.70
2023-05-05T21:28:55.663Z,99.80
2023-05-05T21:31:22.801Z,99.90
2023-05-05T21:33:49.824Z,99.90
2023-05-05T21:36:17.686Z,99.90
2023-05-05T21:38:44.712Z,99.90
2023-05-05T21:41:11.722Z,99.90
2023-05-05T21:43:38.641Z,99.90
2023-05-05T21:46:05.737Z,99.90
2023-05-05T21:48:32.907Z,99.90
2023-05-05T21:50:59.857Z,99.90
2023-05-05T21:53:26.661Z,99.90
2023-05-05T21:55:53.477Z,99.90
2023-05-05T21:58:20.345Z,99.90
2023-05-05T22:00:50.691Z,99.90
2023-05-05T22:03:18.068Z,99.90
2023-05-05T22:05:45.068Z,99.90
2023-05-05T22:08:11.836Z,99.90
2023-05-05T22:10:39.467Z,99.90
2023-05-05T22:13:06.439Z,99.90
2023-05-05T22:15:45.390Z,99.90
2023-05-05T22:18:13.753Z,99.90
2023-05-05T22:20:40.645Z,99.90
2023-05-05T22:23:07.534Z,99.90
2023-05-05T22:25:34.343Z,99.90
2023-05-05T22:28:01.204Z,99.90
2023-05-05T22:30:28.193Z,99.90
2023-05-05T22:32:55.223Z,99.90
2023-05-05T22:35:22.233Z,99.90
2023-05-05T22:37:49.177Z,99.90
2023-05-05T22:40:16.143Z,99.90
2023-05-05T22:42:43.131Z,99.90
2023-05-05T22:45:10.683Z,99.90
2023-05-05T22:47:37.793Z,99.90
2023-05-05T22:50:05.331Z,99.90
2023-05-05T22:52:32.192Z,99.90
2023-05-05T22:54:59.080Z,99.90
2023-05-05T22:57:26.192Z,99.90
2023-05-05T22:59:52.988Z,99.90
2023-05-05T23:02:19.876Z,99.90
2023-05-05T23:04:46.668Z,99.90
2023-05-05T23:07:13.853Z,99.90
2023-05-05T23:09:41.122Z,99.90
2023-05-05T23:12:08.075Z,99.90
2023-05-05T23:14:35.776Z,99.90
2023-05-05T23:17:02.734Z,99.90
2023-05-05T23:19:32.614Z,99.90
2023-05-05T23:22:00.117Z,99.90
2023-05-05T23:24:27.828Z,99.90
2023-05-05T23:26:56.673Z,99.90
2023-05-05T23:29:23.448Z,99.90
2023-05-05T23:31:50.328Z,99.90
2023-05-05T23:34:17.138Z,99.90
2023-05-05T23:36:44.073Z,99.90
2023-05-05T23:39:11.094Z,99.90
2023-05-05T23:41:37.881Z,99.90
2023-05-05T23:44:04.745Z,99.90
2023-05-05T23:46:31.649Z,99.90
2023-05-05T23:48:58.436Z,99.90
2023-05-05T23:51:25.277Z,99.90
2023-05-05T23:53:52.111Z,99.90
2023-05-05T23:56:18.969Z,99.90
2023-05-05T23:58:45.713Z,99.90
